Time;durP1;ratioP1;P1;durP2;ratioP2;P2;SDS_P1;SDS_P2;PMS_P1;PMS_P2;Temp;Humidity;BMP_temperature;BMP_pressure;BME280_temperature;BME280_humidity;BME280_pressure;Samples;Min_cycle;Max_cycle;Signal;HPM_P1;HPM_P2
2022/05/07 00:01:55;;;;;;;8.25;7.10;;;;;;;;;;5104146;28;20204;-69
2022/05/07 00:04:21;;;;;;;9.57;7.25;;;;;;;;;;5104012;28;20400;-69
2022/05/07 00:06:49;;;;;;;9.30;7.57;;;;;;;;;;5104153;28;20215;-69
2022/05/07 00:09:15;;;;;;;8.27;7.55;;;;;;;;;;5104370;28;20202;-69
2022/05/07 00:11:42;;;;;;;7.55;6.88;;;;;;;;;;5104192;28;20208;-69
2022/05/07 00:14:08;;;;;;;8.63;7.80;;;;;;;;;;5104080;28;20522;-69
2022/05/07 00:19:18;;;;;;;9.10;7.70;;;;;;;;;;5103944;28;20233;-69
2022/05/07 00:21:45;;;;;;;9.25;8.07;;;;;;;;;;5104023;28;20223;-69
2022/05/07 00:24:12;;;;;;;9.20;8.05;;;;;;;;;;5103565;28;20250;-69
2022/05/07 00:26:39;;;;;;;10.85;9.10;;;;;;;;;;5103184;28;20195;-69
2022/05/07 00:29:05;;;;;;;9.32;8.43;;;;;;;;;;5104062;28;20196;-69
2022/05/07 00:31:31;;;;;;;9.98;8.80;;;;;;;;;;5103631;28;20203;-69
2022/05/07 00:33:57;;;;;;;9.00;8.10;;;;;;;;;;5103616;28;20196;-69
2022/05/07 00:36:24;;;;;;;10.20;8.60;;;;;;;;;;5103540;28;20385;-69
2022/05/07 00:38:50;;;;;;;8.88;8.02;;;;;;;;;;5103650;28;20386;-69
2022/05/07 00:41:17;;;;;;;9.23;8.43;;;;;;;;;;5103949;28;20203;-69
2022/05/07 00:43:44;;;;;;;14.05;7.88;;;;;;;;;;5103804;28;20198;-69
2022/05/07 00:46:11;;;;;;;8.27;7.50;;;;;;;;;;5103245;28;20216;-69
2022/05/07 00:48:38;;;;;;;7.57;6.88;;;;;;;;;;5103538;28;20195;-69
2022/05/07 00:53:48;;;;;;;7.10;6.57;;;;;;;;;;5103392;28;20241;-69
2022/05/07 00:56:14;;;;;;;7.97;7.22;;;;;;;;;;5102900;28;20202;-69
2022/05/07 00:58:42;;;;;;;7.38;6.55;;;;;;;;;;5103440;28;20192;-69
2022/05/07 01:01:09;;;;;;;9.25;7.30;;;;;;;;;;5103428;28;20204;-69
2022/05/07 01:03:35;;;;;;;8.13;7.40;;;;;;;;;;5103125;28;20395;-69
2022/05/07 01:06:02;;;;;;;8.23;7.43;;;;;;;;;;5102762;28;20287;-69
2022/05/07 01:08:30;;;;;;;7.78;7.10;;;;;;;;;;5103011;28;20363;-69
2022/05/07 01:10:56;;;;;;;7.57;6.97;;;;;;;;;;5103003;28;20514;-69
2022/05/07 01:13:23;;;;;;;8.20;7.40;;;;;;;;;;5103060;28;20195;-69
2022/05/07 01:15:56;;;;;;;9.18;7.20;;;;;;;;;;5102883;28;20192;-69
2022/05/07 01:18:23;;;;;;;7.57;6.97;;;;;;;;;;5103060;28;20198;-68
2022/05/07 01:20:49;;;;;;;8.13;7.30;;;;;;;;;;5102719;28;20203;-68
2022/05/07 01:23:17;;;;;;;8.45;7.60;;;;;;;;;;5102808;28;20196;-68
2022/05/07 01:25:43;;;;;;;7.45;6.88;;;;;;;;;;5102992;28;20226;-69
2022/05/07 01:28:09;;;;;;;8.73;7.80;;;;;;;;;;5102663;28;20196;-69
2022/05/07 01:30:36;;;;;;;7.68;6.90;;;;;;;;;;5102756;28;20199;-69
2022/05/07 01:33:02;;;;;;;9.18;7.57;;;;;;;;;;5102773;28;20207;-69
2022/05/07 01:35:28;;;;;;;8.13;7.32;;;;;;;;;;5102659;28;20206;-69
2022/05/07 01:37:54;;;;;;;8.02;7.32;;;;;;;;;;5101409;28;20203;-69
2022/05/07 01:40:22;;;;;;;9.60;7.07;;;;;;;;;;5102090;28;20195;-69
2022/05/07 01:42:48;;;;;;;7.20;6.50;;;;;;;;;;5102478;28;20203;-69
2022/05/07 01:45:14;;;;;;;7.78;7.10;;;;;;;;;;5102637;28;20381;-69
2022/05/07 01:50:25;;;;;;;7.90;7.10;;;;;;;;;;5102538;28;20516;-69
2022/05/07 01:52:51;;;;;;;7.85;7.25;;;;;;;;;;5102663;28;20221;-69
2022/05/07 01:55:18;;;;;;;8.25;7.50;;;;;;;;;;5102508;28;20199;-69
2022/05/07 01:57:45;;;;;;;8.50;7.75;;;;;;;;;;5102248;28;20203;-69
2022/05/07 02:00:13;;;;;;;8.82;7.93;;;;;;;;;;5102415;28;20273;-69
2022/05/07 02:02:39;;;;;;;8.07;7.40;;;;;;;;;;5102360;28;20257;-69
2022/05/07 02:05:06;;;;;;;9.02;8.25;;;;;;;;;;5102032;28;20223;-69
2022/05/07 02:07:32;;;;;;;9.32;8.05;;;;;;;;;;5102126;28;20199;-69
2022/05/07 02:09:58;;;;;;;10.35;8.70;;;;;;;;;;5102716;28;20242;-69
2022/05/07 02:12:24;;;;;;;9.20;8.30;;;;;;;;;;5102351;28;20234;-69
2022/05/07 02:14:52;;;;;;;10.10;8.40;;;;;;;;;;5102164;28;20266;-69
2022/05/07 02:17:18;;;;;;;13.65;7.78;;;;;;;;;;5102300;28;20199;-69
2022/05/07 02:19:45;;;;;;;8.65;7.95;;;;;;;;;;5102430;28;20196;-69
2022/05/07 02:22:11;;;;;;;8.63;7.82;;;;;;;;;;5102115;28;20196;-69
2022/05/07 02:24:38;;;;;;;9.57;8.68;;;;;;;;;;5101962;28;20253;-69
2022/05/07 02:27:04;;;;;;;12.10;7.88;;;;;;;;;;5101899;28;20196;-69
2022/05/07 02:29:31;;;;;;;8.82;7.97;;;;;;;;;;5102061;28;20203;-69
2022/05/07 02:32:04;;;;;;;11.93;8.88;;;;;;;;;;5102310;28;20202;-69
2022/05/07 02:34:31;;;;;;;9.52;8.63;;;;;;;;;;5102072;28;20284;-69
2022/05/07 02:36:57;;;;;;;10.05;9.05;;;;;;;;;;5102032;28;20200;-69
2022/05/07 02:39:23;;;;;;;11.55;8.95;;;;;;;;;;5102178;28;20394;-69
2022/05/07 02:44:33;;;;;;;9.68;8.70;;;;;;;;;;5102062;28;20225;-68
2022/05/07 02:47:01;;;;;;;10.32;8.38;;;;;;;;;;5101973;28;20441;-69
2022/05/07 02:49:27;;;;;;;9.68;8.73;;;;;;;;;;5104722;28;20203;-69
2022/05/07 02:51:54;;;;;;;8.93;8.23;;;;;;;;;;5105687;28;20203;-69
2022/05/07 02:54:20;;;;;;;9.20;8.30;;;;;;;;;;5105398;28;20278;-69
2022/05/07 02:56:46;;;;;;;11.35;8.60;;;;;;;;;;5105741;28;20192;-69
2022/05/07 02:59:12;;;;;;;9.50;8.55;;;;;;;;;;5105476;28;20196;-69
2022/05/07 03:01:41;;;;;;;8.82;8.00;;;;;;;;;;5105530;28;20199;-69
2022/05/07 03:04:08;;;;;;;9.15;8.35;;;;;;;;;;5105296;28;20321;-69
2022/05/07 03:06:35;;;;;;;9.73;8.63;;;;;;;;;;5105131;28;20227;-69
2022/05/07 03:09:01;;;;;;;10.27;9.35;;;;;;;;;;5105346;28;20195;-69
2022/05/07 03:11:27;;;;;;;12.18;9.30;;;;;;;;;;5105489;28;20633;-69
2022/05/07 03:13:54;;;;;;;9.70;8.82;;;;;;;;;;5105472;28;20530;-69
2022/05/07 03:16:20;;;;;;;11.15;8.68;;;;;;;;;;5105018;28;20202;-69
2022/05/07 03:18:46;;;;;;;11.35;9.32;;;;;;;;;;5105228;28;20202;-69
2022/05/07 03:21:14;;;;;;;9.75;8.40;;;;;;;;;;5105149;28;20203;-69
2022/05/07 03:23:40;;;;;;;9.65;8.50;;;;;;;;;;5104832;28;20199;-69
2022/05/07 03:26:06;;;;;;;9.75;8.88;;;;;;;;;;5104983;28;20253;-69
2022/05/07 03:28:33;;;;;;;10.32;9.00;;;;;;;;;;5104908;28;20210;-69
2022/05/07 03:31:00;;;;;;;10.80;9.15;;;;;;;;;;5104961;28;20202;-69
2022/05/07 03:33:26;;;;;;;12.32;9.43;;;;;;;;;;5104932;28;20234;-69
2022/05/07 03:35:52;;;;;;;10.05;9.05;;;;;;;;;;5104713;28;20222;-69
2022/05/07 03:38:20;;;;;;;11.45;9.25;;;;;;;;;;5104906;28;20203;-69
2022/05/07 03:40:46;;;;;;;10.70;9.60;;;;;;;;;;5104872;28;20199;-69
2022/05/07 03:43:12;;;;;;;10.70;9.63;;;;;;;;;;5105149;28;20195;-69
2022/05/07 03:45:39;;;;;;;10.75;9.75;;;;;;;;;;5104694;28;20220;-69
2022/05/07 03:48:05;;;;;;;9.65;8.85;;;;;;;;;;5104549;28;20214;-69
2022/05/07 03:50:31;;;;;;;9.98;9.00;;;;;;;;;;5104620;28;20195;-69
2022/05/07 03:55:44;;;;;;;10.50;8.88;;;;;;;;;;5104522;28;20218;-69
2022/05/07 03:58:10;;;;;;;10.40;8.90;;;;;;;;;;5104219;28;20549;-69
2022/05/07 04:00:37;;;;;;;10.07;9.07;;;;;;;;;;5103405;28;20393;-69
2022/05/07 04:03:03;;;;;;;10.57;9.48;;;;;;;;;;5104241;28;20573;-69
2022/05/07 04:05:30;;;;;;;10.38;9.48;;;;;;;;;;5104142;28;20238;-69
2022/05/07 04:07:56;;;;;;;11.13;10.02;;;;;;;;;;5104163;28;20200;-69
2022/05/07 04:10:22;;;;;;;10.95;9.85;;;;;;;;;;5104192;28;20196;-69
2022/05/07 04:12:51;;;;;;;11.20;10.20;;;;;;;;;;5104137;28;20204;-69
2022/05/07 04:15:17;;;;;;;11.73;10.48;;;;;;;;;;5104362;28;20188;-68
2022/05/07 04:17:43;;;;;;;10.70;9.68;;;;;;;;;;5103720;28;20196;-68
2022/05/07 04:20:11;;;;;;;10.95;9.82;;;;;;;;;;5103852;28;20204;-68
2022/05/07 04:22:37;;;;;;;11.15;10.05;;;;;;;;;;5104024;28;20210;-68
2022/05/07 04:25:04;;;;;;;10.93;9.93;;;;;;;;;;5103552;28;20195;-68
2022/05/07 04:27:30;;;;;;;11.20;9.77;;;;;;;;;;5103703;28;20241;-68
2022/05/07 04:29:58;;;;;;;10.38;9.43;;;;;;;;;;5104225;28;20202;-68
2022/05/07 04:32:24;;;;;;;11.27;10.02;;;;;;;;;;5103739;28;20226;-68
2022/05/07 04:34:51;;;;;;;10.98;9.98;;;;;;;;;;5104076;28;20199;-68
2022/05/07 04:37:17;;;;;;;9.98;9.05;;;;;;;;;;5103846;28;20196;-68
2022/05/07 04:39:43;;;;;;;12.00;10.77;;;;;;;;;;5103654;28;20196;-68
2022/05/07 04:42:10;;;;;;;11.25;10.00;;;;;;;;;;5103805;28;20199;-68
2022/05/07 04:44:36;;;;;;;10.75;9.65;;;;;;;;;;5103512;28;20207;-68
2022/05/07 04:47:05;;;;;;;10.40;9.40;;;;;;;;;;5103034;28;20543;-68
2022/05/07 04:49:31;;;;;;;10.98;9.85;;;;;;;;;;5103548;28;20218;-68
2022/05/07 04:51:58;;;;;;;11.50;10.30;;;;;;;;;;5103304;28;20203;-68
2022/05/07 04:54:24;;;;;;;13.88;10.60;;;;;;;;;;5103253;28;20199;-68
2022/05/07 04:56:51;;;;;;;11.48;9.98;;;;;;;;;;5103034;28;20192;-68
2022/05/07 04:59:18;;;;;;;14.15;9.95;;;;;;;;;;5102931;28;20196;-68
2022/05/07 05:01:44;;;;;;;13.20;10.35;;;;;;;;;;5103303;28;20218;-68
2022/05/07 05:04:12;;;;;;;11.60;10.07;;;;;;;;;;5103243;28;20200;-68
2022/05/07 05:06:38;;;;;;;14.45;10.88;;;;;;;;;;5102690;28;20219;-68
2022/05/07 05:09:05;;;;;;;11.05;9.98;;;;;;;;;;5102909;28;20233;-68
2022/05/07 05:11:32;;;;;;;10.20;9.20;;;;;;;;;;5103264;28;20195;-68
2022/05/07 05:13:58;;;;;;;12.45;10.02;;;;;;;;;;5102842;28;20200;-68
2022/05/07 05:16:24;;;;;;;10.48;9.48;;;;;;;;;;5102845;28;20207;-68
2022/05/07 05:18:51;;;;;;;10.40;9.35;;;;;;;;;;5103181;28;20203;-68
2022/05/07 05:21:19;;;;;;;10.82;9.82;;;;;;;;;;5103132;28;20195;-68
2022/05/07 05:23:46;;;;;;;11.20;10.10;;;;;;;;;;5103115;28;20202;-68
2022/05/07 05:26:13;;;;;;;14.20;9.40;;;;;;;;;;5102964;28;20250;-68
2022/05/07 05:28:40;;;;;;;11.18;9.32;;;;;;;;;;5102854;28;20202;-68
2022/05/07 05:31:06;;;;;;;10.63;9.60;;;;;;;;;;5102868;28;20195;-68
2022/05/07 05:33:32;;;;;;;10.98;9.88;;;;;;;;;;5102642;28;20203;-68
2022/05/07 05:35:58;;;;;;;12.30;10.30;;;;;;;;;;5102778;28;20196;-68
2022/05/07 05:38:26;;;;;;;13.50;10.32;;;;;;;;;;5102799;28;20203;-68
2022/05/07 05:40:52;;;;;;;13.20;11.90;;;;;;;;;;5102548;28;20196;-68
2022/05/07 05:43:19;;;;;;;15.30;11.25;;;;;;;;;;5102371;28;20211;-68
2022/05/07 05:45:45;;;;;;;13.38;11.73;;;;;;;;;;5102675;28;20219;-68
2022/05/07 05:48:11;;;;;;;13.80;11.52;;;;;;;;;;5102578;28;20200;-68
2022/05/07 05:50:38;;;;;;;14.20;11.50;;;;;;;;;;5102447;28;20385;-69
2022/05/07 05:53:05;;;;;;;13.80;12.40;;;;;;;;;;5102544;28;20249;-68
2022/05/07 05:55:32;;;;;;;13.00;11.68;;;;;;;;;;5102464;28;20364;-69
2022/05/07 05:57:58;;;;;;;13.55;11.00;;;;;;;;;;5102227;28;20196;-68
2022/05/07 06:00:25;;;;;;;12.68;11.20;;;;;;;;;;5102745;28;20503;-68
2022/05/07 06:02:51;;;;;;;14.25;12.30;;;;;;;;;;5101737;28;20232;-69
2022/05/07 06:05:17;;;;;;;12.48;11.18;;;;;;;;;;5102490;28;20216;-68
2022/05/07 06:07:44;;;;;;;13.23;11.85;;;;;;;;;;5102084;28;20291;-68
2022/05/07 06:10:10;;;;;;;17.05;12.68;;;;;;;;;;5102153;28;20199;-68
2022/05/07 06:12:37;;;;;;;13.27;11.93;;;;;;;;;;5102577;28;20204;-68
2022/05/07 06:15:05;;;;;;;12.30;11.13;;;;;;;;;;5102275;28;20195;-68
2022/05/07 06:17:31;;;;;;;13.05;11.75;;;;;;;;;;5102090;28;20205;-68
2022/05/07 06:19:58;;;;;;;16.48;11.88;;;;;;;;;;5102237;28;20234;-68
2022/05/07 06:22:24;;;;;;;13.23;12.02;;;;;;;;;;5102142;28;20274;-68
2022/05/07 06:27:34;;;;;;;13.45;12.25;;;;;;;;;;5106127;28;20257;-69
2022/05/07 06:30:03;;;;;;;17.13;12.75;;;;;;;;;;5106374;28;20199;-69
2022/05/07 06:32:33;;;;;;;14.80;12.63;;;;;;;;;;5106255;28;20199;-68
2022/05/07 06:34:59;;;;;;;12.88;11.57;;;;;;;;;;5106171;28;20188;-68
2022/05/07 06:37:26;;;;;;;15.90;12.48;;;;;;;;;;5105694;28;20192;-69
2022/05/07 06:39:52;;;;;;;13.50;12.10;;;;;;;;;;5105959;28;20504;-69
2022/05/07 06:42:18;;;;;;;14.13;12.65;;;;;;;;;;5106013;28;20211;-69
2022/05/07 06:44:45;;;;;;;13.05;10.90;;;;;;;;;;5105995;28;20195;-68
2022/05/07 06:47:12;;;;;;;14.65;11.32;;;;;;;;;;5105501;28;20224;-68
2022/05/07 06:49:39;;;;;;;14.13;12.68;;;;;;;;;;5105621;28;20200;-69
2022/05/07 06:52:05;;;;;;;13.93;12.52;;;;;;;;;;5105821;28;20231;-69
2022/05/07 06:54:31;;;;;;;13.88;11.90;;;;;;;;;;5105783;28;20195;-69
2022/05/07 06:56:58;;;;;;;13.95;12.55;;;;;;;;;;5105714;28;20192;-69
2022/05/07 06:59:24;;;;;;;16.35;12.18;;;;;;;;;;5105589;28;20195;-69
2022/05/07 07:01:50;;;;;;;13.80;12.32;;;;;;;;;;5105354;28;20203;-69
2022/05/07 07:04:18;;;;;;;15.50;13.43;;;;;;;;;;5105523;28;20395;-69
2022/05/07 07:06:44;;;;;;;15.90;13.55;;;;;;;;;;5105343;28;20234;-68
2022/05/07 07:09:11;;;;;;;15.75;13.25;;;;;;;;;;5105667;28;20203;-68
2022/05/07 07:11:37;;;;;;;18.48;13.68;;;;;;;;;;5105557;28;20203;-69
2022/05/07 07:14:03;;;;;;;14.75;13.30;;;;;;;;;;5105399;28;20196;-69
2022/05/07 07:16:30;;;;;;;13.05;11.80;;;;;;;;;;5104971;28;20200;-69
2022/05/07 07:18:56;;;;;;;18.30;12.32;;;;;;;;;;5105045;28;20235;-69
2022/05/07 07:21:23;;;;;;;21.55;16.00;;;;;;;;;;5104926;28;20274;-69
2022/05/07 07:23:50;;;;;;;18.05;14.95;;;;;;;;;;5105326;28;20206;-69
2022/05/07 07:26:16;;;;;;;13.50;12.23;;;;;;;;;;5104946;28;20555;-69
2022/05/07 07:28:42;;;;;;;15.63;13.55;;;;;;;;;;5105112;28;20192;-69
2022/05/07 07:31:09;;;;;;;14.90;12.52;;;;;;;;;;5104975;28;20203;-69
2022/05/07 07:33:35;;;;;;;15.00;12.90;;;;;;;;;;5104744;28;20203;-69
2022/05/07 07:36:02;;;;;;;16.83;11.77;;;;;;;;;;5104892;28;20514;-69
2022/05/07 07:38:29;;;;;;;14.35;12.80;;;;;;;;;;5104874;28;20526;-69
2022/05/07 07:40:56;;;;;;;16.08;11.85;;;;;;;;;;5104936;28;20217;-69
2022/05/07 07:43:22;;;;;;;19.10;15.68;;;;;;;;;;5104893;28;20500;-69
2022/05/07 07:48:32;;;;;;;15.45;11.55;;;;;;;;;;5104861;28;20251;-69
2022/05/07 07:50:59;;;;;;;16.27;12.52;;;;;;;;;;5104778;28;20202;-69
2022/05/07 07:53:25;;;;;;;13.70;11.93;;;;;;;;;;5104758;28;20203;-69
2022/05/07 07:55:53;;;;;;;16.13;11.55;;;;;;;;;;5104561;28;20199;-69
2022/05/07 07:58:19;;;;;;;15.10;11.57;;;;;;;;;;5104232;28;20199;-69
2022/05/07 08:00:45;;;;;;;12.00;10.93;;;;;;;;;;5104256;28;20260;-69
2022/05/07 08:03:12;;;;;;;19.17;12.27;;;;;;;;;;5104442;28;20540;-69
2022/05/07 08:05:39;;;;;;;13.27;10.82;;;;;;;;;;5104329;28;20223;-69
2022/05/07 08:13:35;;;;;;;13.95;10.98;;;;;;;;;;5083125;28;20222;-69
2022/05/07 08:16:01;;;;;;;17.60;11.82;;;;;;;;;;5103822;28;20196;-69
2022/05/07 08:18:28;;;;;;;13.45;10.98;;;;;;;;;;5103840;28;20491;-69
2022/05/07 08:20:55;;;;;;;15.40;10.68;;;;;;;;;;5104083;28;20203;-69
2022/05/07 08:23:21;;;;;;;12.25;10.45;;;;;;;;;;5103923;28;20196;-69
2022/05/07 08:25:48;;;;;;;12.25;11.13;;;;;;;;;;5103841;28;20203;-69
2022/05/07 08:28:15;;;;;;;17.05;10.70;;;;;;;;;;5103733;28;20222;-67
2022/05/07 08:30:43;;;;;;;12.50;9.93;;;;;;;;;;5103963;28;20223;-69
2022/05/07 08:33:09;;;;;;;11.25;10.07;;;;;;;;;;5103792;28;20517;-69
2022/05/07 08:35:35;;;;;;;11.50;10.15;;;;;;;;;;5103759;28;20196;-69
2022/05/07 08:38:02;;;;;;;11.73;10.18;;;;;;;;;;5103333;28;20199;-69
2022/05/07 08:40:28;;;;;;;12.93;9.20;;;;;;;;;;5103765;28;20530;-69
2022/05/07 08:42:55;;;;;;;15.82;9.85;;;;;;;;;;5103707;28;20196;-69
2022/05/07 08:45:21;;;;;;;11.10;9.90;;;;;;;;;;5103237;28;20196;-69
2022/05/07 08:47:52;;;;;;;13.68;9.60;;;;;;;;;;5103024;28;20418;-69
2022/05/07 08:50:18;;;;;;;10.48;9.52;;;;;;;;;;5103329;28;20372;-69
2022/05/07 08:52:45;;;;;;;13.43;9.05;;;;;;;;;;5103248;28;20202;-69
2022/05/07 08:55:13;;;;;;;11.73;9.45;;;;;;;;;;5103081;28;20202;-69
2022/05/07 08:57:40;;;;;;;10.52;9.52;;;;;;;;;;5102627;28;20198;-69
2022/05/07 09:00:08;;;;;;;9.35;8.48;;;;;;;;;;5102737;28;20195;-69
2022/05/07 09:02:38;;;;;;;10.65;9.07;;;;;;;;;;5102617;28;20231;-69
2022/05/07 09:05:06;;;;;;;10.73;9.32;;;;;;;;;;5102687;28;20216;-69
2022/05/07 09:07:32;;;;;;;14.25;9.25;;;;;;;;;;5102717;28;20224;-69
2022/05/07 09:09:59;;;;;;;10.75;8.82;;;;;;;;;;5102883;28;20233;-69
2022/05/07 09:12:26;;;;;;;14.88;9.20;;;;;;;;;;5102921;28;20204;-69
2022/05/07 09:14:52;;;;;;;7.82;7.13;;;;;;;;;;5102757;28;20226;-69
2022/05/07 09:17:19;;;;;;;15.48;10.68;;;;;;;;;;5102228;28;20196;-69
2022/05/07 09:19:45;;;;;;;17.77;12.63;;;;;;;;;;5102402;28;20229;-69
2022/05/07 09:22:13;;;;;;;13.15;8.23;;;;;;;;;;5102565;28;20195;-69
2022/05/07 09:24:40;;;;;;;8.85;7.95;;;;;;;;;;5102374;28;20503;-69
2022/05/07 09:27:07;;;;;;;9.68;7.90;;;;;;;;;;5102099;28;20243;-69
2022/05/07 09:29:34;;;;;;;11.20;8.30;;;;;;;;;;5102132;28;20196;-69
2022/05/07 09:32:07;;;;;;;8.38;6.07;;;;;;;;;;5102325;28;20395;-69
2022/05/07 09:37:33;;;;;;;8.13;5.50;;;;;;;;;;5102018;28;20190;-69
2022/05/07 09:40:03;;;;;;;7.28;6.30;;;;;;;;;;5102212;28;20199;-69
2022/05/07 09:42:30;;;;;;;6.43;5.43;;;;;;;;;;5102196;28;20199;-69
2022/05/07 09:44:56;;;;;;;8.52;6.72;;;;;;;;;;5101784;28;20199;-69
2022/05/07 09:47:22;;;;;;;11.70;4.85;;;;;;;;;;5101681;28;20223;-69
2022/05/07 09:58:10;;;;;;;2.63;2.53;;;;;;;;;;5102392;28;20510;-69
2022/05/07 10:00:38;;;;;;;3.53;3.20;;;;;;;;;;5106314;28;20195;-69
2022/05/07 10:03:07;;;;;;;4.35;3.58;;;;;;;;;;5106210;28;20248;-69
2022/05/07 10:05:44;;;;;;;3.42;3.03;;;;;;;;;;5106253;28;20418;-69
2022/05/07 10:08:20;;;;;;;5.50;3.40;;;;;;;;;;5106169;28;20227;-69
2022/05/07 10:10:47;;;;;;;8.88;3.90;;;;;;;;;;5106178;28;20202;-69
2022/05/07 10:13:16;;;;;;;3.90;3.50;;;;;;;;;;5106155;28;20526;-69
2022/05/07 10:15:44;;;;;;;5.68;3.85;;;;;;;;;;5106077;28;20230;-68
2022/05/07 10:18:14;;;;;;;5.07;3.90;;;;;;;;;;5105674;28;20495;-68
2022/05/07 10:20:43;;;;;;;3.70;3.42;;;;;;;;;;5105971;28;20202;-68
2022/05/07 10:23:10;;;;;;;5.22;3.85;;;;;;;;;;5105852;28;20230;-68
2022/05/07 10:25:38;;;;;;;3.55;3.30;;;;;;;;;;5106100;28;20238;-68
2022/05/07 10:28:07;;;;;;;4.57;2.97;;;;;;;;;;5105505;28;20215;-68
2022/05/07 10:30:44;;;;;;;4.85;3.13;;;;;;;;;;5105431;28;20219;-68
2022/05/07 10:33:11;;;;;;;4.22;3.25;;;;;;;;;;5105580;28;20203;-68
2022/05/07 10:35:41;;;;;;;5.00;2.70;;;;;;;;;;5105409;28;20196;-68
2022/05/07 10:38:08;;;;;;;6.43;3.45;;;;;;;;;;5105244;28;20192;-68
2022/05/07 10:40:34;;;;;;;5.15;2.97;;;;;;;;;;5105432;28;20203;-68
2022/05/07 10:43:02;;;;;;;2.78;2.65;;;;;;;;;;5105243;28;20195;-68
2022/05/07 10:45:38;;;;;;;4.05;3.10;;;;;;;;;;5105378;28;20524;-68
2022/05/07 10:48:15;;;;;;;4.65;3.20;;;;;;;;;;5105201;28;20218;-68
2022/05/07 10:50:50;;;;;;;3.50;2.70;;;;;;;;;;5105198;28;20195;-68
2022/05/07 10:53:16;;;;;;;2.65;2.55;;;;;;;;;;5105108;28;20195;-69
2022/05/07 10:55:42;;;;;;;2.88;2.65;;;;;;;;;;5105062;28;20200;-68
2022/05/07 10:58:10;;;;;;;5.93;3.42;;;;;;;;;;5105037;28;20199;-68
2022/05/07 11:00:36;;;;;;;2.00;1.90;;;;;;;;;;5105178;28;20274;-68
2022/05/07 11:03:03;;;;;;;4.88;1.95;;;;;;;;;;5104923;28;20215;-68
2022/05/07 11:05:29;;;;;;;2.40;1.45;;;;;;;;;;5105012;28;20216;-68
2022/05/07 11:07:58;;;;;;;1.95;1.60;;;;;;;;;;5104826;28;20290;-68
2022/05/07 11:10:24;;;;;;;3.17;2.00;;;;;;;;;;5104408;28;20195;-68
2022/05/07 11:12:50;;;;;;;1.90;1.80;;;;;;;;;;5104834;28;20266;-68
2022/05/07 11:15:24;;;;;;;4.78;1.80;;;;;;;;;;5104943;28;20202;-68
2022/05/07 11:17:51;;;;;;;5.13;1.70;;;;;;;;;;5104493;28;20352;-68
2022/05/07 11:20:28;;;;;;;3.05;1.33;;;;;;;;;;5104770;28;20515;-68
2022/05/07 11:22:58;;;;;;;2.00;1.80;;;;;;;;;;5104503;28;20248;-68
2022/05/07 11:25:24;;;;;;;1.77;1.50;;;;;;;;;;5104874;28;20203;-68
2022/05/07 11:27:51;;;;;;;2.75;2.10;;;;;;;;;;5104057;28;20226;-68
2022/05/07 11:30:18;;;;;;;1.67;1.60;;;;;;;;;;5104519;28;20447;-68
2022/05/07 11:32:46;;;;;;;4.47;1.85;;;;;;;;;;5104497;28;20196;-68
2022/05/07 11:35:12;;;;;;;2.05;1.55;;;;;;;;;;5104428;28;20207;-68
2022/05/07 11:37:40;;;;;;;2.20;1.52;;;;;;;;;;5104392;28;20196;-68
2022/05/07 11:40:06;;;;;;;2.22;1.30;;;;;;;;;;5104620;28;20234;-68
2022/05/07 11:42:33;;;;;;;3.17;1.45;;;;;;;;;;5104240;28;20200;-68
2022/05/07 11:47:53;;;;;;;3.88;1.95;;;;;;;;;;5103923;28;20406;-69
2022/05/07 11:50:21;;;;;;;2.83;1.85;;;;;;;;;;5104471;28;20366;-68
2022/05/07 11:52:48;;;;;;;2.15;1.70;;;;;;;;;;5104235;28;20196;-68
2022/05/07 11:55:16;;;;;;;1.85;1.63;;;;;;;;;;5104145;28;20195;-68
2022/05/07 11:57:44;;;;;;;3.22;1.70;;;;;;;;;;5103689;28;20266;-68
2022/05/07 12:00:15;;;;;;;5.10;1.88;;;;;;;;;;5103655;28;20199;-69
2022/05/07 12:02:48;;;;;;;1.90;1.58;;;;;;;;;;5103795;28;20203;-69
2022/05/07 12:05:16;;;;;;;2.78;1.67;;;;;;;;;;5103701;28;20223;-69
2022/05/07 12:07:45;;;;;;;7.05;1.75;;;;;;;;;;5103520;28;20437;-69
2022/05/07 12:10:12;;;;;;;3.60;1.23;;;;;;;;;;5103633;28;20196;-69
2022/05/07 12:12:38;;;;;;;1.90;1.20;;;;;;;;;;5103449;28;20203;-69
2022/05/07 12:15:05;;;;;;;2.20;1.60;;;;;;;;;;5103689;28;20222;-69
2022/05/07 12:20:18;;;;;;;2.30;1.45;;;;;;;;;;5103149;28;20190;-69
2022/05/07 12:30:57;;;;;;;1.40;1.30;;;;;;;;;;5103341;28;20256;-68
2022/05/07 12:33:23;;;;;;;2.45;1.60;;;;;;;;;;5103630;28;20195;-69
2022/05/07 12:35:52;;;;;;;3.60;1.38;;;;;;;;;;5103511;28;20290;-69
2022/05/07 12:38:18;;;;;;;3.20;1.73;;;;;;;;;;5103513;28;20215;-69
2022/05/07 12:40:44;;;;;;;2.25;1.20;;;;;;;;;;5103553;28;20278;-69
2022/05/07 12:43:11;;;;;;;1.15;1.05;;;;;;;;;;5103490;28;20527;-69
2022/05/07 12:45:37;;;;;;;3.28;1.30;;;;;;;;;;5103455;28;20503;-68
2022/05/07 12:48:04;;;;;;;2.80;1.27;;;;;;;;;;5102935;28;20219;-68
2022/05/07 12:50:30;;;;;;;1.20;1.10;;;;;;;;;;5103483;28;20373;-68
2022/05/07 12:52:57;;;;;;;4.13;1.25;;;;;;;;;;5103413;28;20196;-68
2022/05/07 12:55:24;;;;;;;1.60;1.50;;;;;;;;;;5103402;28;20196;-68
2022/05/07 12:57:50;;;;;;;3.05;1.63;;;;;;;;;;5102868;28;20199;-69
2022/05/07 13:00:16;;;;;;;2.50;1.40;;;;;;;;;;5103444;28;20484;-69
2022/05/07 13:02:43;;;;;;;2.65;1.45;;;;;;;;;;5102837;28;20213;-67
2022/05/07 13:05:09;;;;;;;1.60;1.50;;;;;;;;;;5103115;28;20220;-67
2022/05/07 13:07:36;;;;;;;4.22;1.30;;;;;;;;;;5102699;28;20195;-67
2022/05/07 13:10:05;;;;;;;1.58;1.17;;;;;;;;;;5102965;28;20239;-67
2022/05/07 13:12:31;;;;;;;1.88;1.30;;;;;;;;;;5102830;28;20202;-67
2022/05/07 13:14:59;;;;;;;4.90;1.65;;;;;;;;;;5102878;28;20195;-67
2022/05/07 13:17:25;;;;;;;3.03;1.30;;;;;;;;;;5102535;28;20196;-67
2022/05/07 13:19:52;;;;;;;3.33;1.30;;;;;;;;;;5102960;28;20192;-67
2022/05/07 13:22:18;;;;;;;2.90;1.70;;;;;;;;;;5102947;28;20199;-69
2022/05/07 13:24:46;;;;;;;2.45;1.27;;;;;;;;;;5102898;28;20437;-67
2022/05/07 13:27:13;;;;;;;2.85;1.40;;;;;;;;;;5102611;28;20203;-67
2022/05/07 13:29:40;;;;;;;1.67;1.08;;;;;;;;;;5102562;28;20215;-67
2022/05/07 13:32:06;;;;;;;1.83;1.10;;;;;;;;;;5102358;28;20204;-67
2022/05/07 13:34:33;;;;;;;5.05;1.20;;;;;;;;;;5102740;28;20497;-67
2022/05/07 13:37:00;;;;;;;1.17;1.10;;;;;;;;;;5102579;28;20222;-67
2022/05/07 13:39:26;;;;;;;1.77;1.67;;;;;;;;;;5102753;28;20205;-67
2022/05/07 13:41:53;;;;;;;2.45;1.48;;;;;;;;;;5102576;28;20203;-67
2022/05/07 13:44:21;;;;;;;2.80;1.45;;;;;;;;;;5101738;28;20202;-67
2022/05/07 13:46:47;;;;;;;3.00;1.15;;;;;;;;;;5102179;28;20203;-67
2022/05/07 13:49:13;;;;;;;3.85;1.20;;;;;;;;;;5102510;28;20215;-67
2022/05/07 13:51:39;;;;;;;2.63;1.17;;;;;;;;;;5102503;28;20225;-69
2022/05/07 13:54:06;;;;;;;1.90;1.42;;;;;;;;;;5102389;28;20384;-67
2022/05/07 13:56:32;;;;;;;2.38;1.40;;;;;;;;;;5102153;28;20202;-68
2022/05/07 13:58:58;;;;;;;1.50;1.40;;;;;;;;;;5102202;28;20207;-67
2022/05/07 14:01:26;;;;;;;2.55;1.15;;;;;;;;;;5102550;28;20195;-67
2022/05/07 14:03:52;;;;;;;1.92;1.35;;;;;;;;;;5102164;28;20503;-67
2022/05/07 14:06:19;;;;;;;4.63;1.40;;;;;;;;;;5102167;28;20539;-67
2022/05/07 14:08:46;;;;;;;1.40;1.13;;;;;;;;;;5102035;28;20215;-67
2022/05/07 14:11:12;;;;;;;1.63;1.52;;;;;;;;;;5102173;28;20201;-67
2022/05/07 14:13:38;;;;;;;2.30;1.40;;;;;;;;;;5102029;28;20400;-67
2022/05/07 14:16:05;;;;;;;5.28;1.55;;;;;;;;;;5101854;28;20200;-67
2022/05/07 14:18:32;;;;;;;1.65;1.48;;;;;;;;;;5102314;28;20278;-67
2022/05/07 14:20:59;;;;;;;2.42;1.35;;;;;;;;;;5102084;28;20215;-67
2022/05/07 14:23:25;;;;;;;2.25;1.75;;;;;;;;;;5101975;28;20218;-69
2022/05/07 14:25:52;;;;;;;1.83;1.40;;;;;;;;;;5101850;28;20203;-67
2022/05/07 14:28:18;;;;;;;5.65;2.00;;;;;;;;;;5101629;28;20398;-67
2022/05/07 14:30:44;;;;;;;2.38;1.70;;;;;;;;;;5102145;28;20195;-67
2022/05/07 14:33:11;;;;;;;1.27;1.17;;;;;;;;;;5102131;28;20598;-67
2022/05/07 14:35:38;;;;;;;4.07;1.95;;;;;;;;;;5102046;28;20530;-67
2022/05/07 14:38:07;;;;;;;3.30;1.63;;;;;;;;;;5102201;28;20200;-67
2022/05/07 14:40:34;;;;;;;2.13;1.60;;;;;;;;;;5101965;28;20557;-68
2022/05/07 14:43:02;;;;;;;3.80;1.77;;;;;;;;;;5102400;28;20210;-68
2022/05/07 14:45:28;;;;;;;2.55;1.45;;;;;;;;;;5105004;28;20195;-68
2022/05/07 14:47:55;;;;;;;2.17;1.63;;;;;;;;;;5105713;28;20195;-68
2022/05/07 14:50:21;;;;;;;2.42;1.90;;;;;;;;;;5105568;28;20219;-68
2022/05/07 14:52:49;;;;;;;3.58;1.88;;;;;;;;;;5105660;28;20278;-68
2022/05/07 14:55:16;;;;;;;2.35;2.25;;;;;;;;;;5105547;28;20199;-68
2022/05/07 14:57:42;;;;;;;3.13;1.58;;;;;;;;;;5105619;28;20521;-68
2022/05/07 15:00:09;;;;;;;2.78;1.58;;;;;;;;;;5105437;28;20203;-68
2022/05/07 15:02:36;;;;;;;1.80;1.70;;;;;;;;;;5105505;28;20564;-68
2022/05/07 15:05:03;;;;;;;5.00;2.05;;;;;;;;;;5105367;28;20215;-68
2022/05/07 15:07:29;;;;;;;3.88;1.98;;;;;;;;;;5105435;28;20203;-68
2022/05/07 15:12:49;;;;;;;3.13;2.08;;;;;;;;;;5080233;28;20198;-68
2022/05/07 15:15:15;;;;;;;1.73;1.63;;;;;;;;;;5105165;28;20253;-68
2022/05/07 15:17:41;;;;;;;1.80;1.70;;;;;;;;;;5105037;28;20512;-68
2022/05/07 15:20:08;;;;;;;5.13;1.95;;;;;;;;;;5105062;28;20395;-68
2022/05/07 15:22:35;;;;;;;9.18;2.60;;;;;;;;;;5105019;28;20199;-68
2022/05/07 15:25:03;;;;;;;2.70;2.50;;;;;;;;;;5105279;28;20503;-68